Time;durP1;ratioP1;P1;durP2;ratioP2;P2;SDS_P1;SDS_P2;PMS_P1;PMS_P2;Temp;Humidity;BMP_temperature;BMP_pressure;BME280_temperature;BME280_humidity;BME280_pressure;Samples;Min_cycle;Max_cycle;Signal;HPM_P1;HPM_P2
2022/08/19 00:02:04;;;;;;;11.55;7.13;;;15.80;99.90;;;;;;5053611;28;20049;-62
2022/08/19 00:04:35;;;;;;;13.68;8.05;;;16.20;99.90;;;;;;5052574;28;20078;-62
2022/08/19 00:07:03;;;;;;;12.85;6.32;;;15.80;99.90;;;;;;5019545;28;20049;-62
2022/08/19 00:09:29;;;;;;;13.98;7.55;;;15.80;99.90;;;;;;5035744;28;20044;-61
2022/08/19 00:11:56;;;;;;;9.50;7.30;;;16.30;99.90;;;;;;5034767;28;20045;-61
2022/08/19 00:14:24;;;;;;;9.50;7.07;;;15.70;99.90;;;;;;5035828;28;20068;-62
2022/08/19 00:16:53;;;;;;;10.88;7.35;;;15.70;99.90;;;;;;5053303;28;20040;-62
2022/08/19 00:19:20;;;;;;;12.10;7.63;;;15.70;99.90;;;;;;5035150;28;20057;-62
2022/08/19 00:21:46;;;;;;;9.82;7.35;;;15.70;99.90;;;;;;5053057;28;20040;-62
2022/08/19 00:24:14;;;;;;;10.25;7.93;;;15.70;99.90;;;;;;5019103;28;20412;-62
2022/08/19 00:26:41;;;;;;;13.02;8.05;;;15.70;99.90;;;;;;5034838;28;20049;-62
2022/08/19 00:29:09;;;;;;;11.80;8.18;;;15.90;99.90;;;;;;5052814;28;20490;-61
2022/08/19 00:31:35;;;;;;;11.88;8.38;;;15.70;99.90;;;;;;5053116;28;20048;-62
2022/08/19 00:34:02;;;;;;;12.85;7.57;;;15.70;99.90;;;;;;5017958;28;20051;-62
2022/08/19 00:36:29;;;;;;;13.50;8.50;;;15.60;99.90;;;;;;5052620;28;20045;-61
2022/08/19 00:38:55;;;;;;;10.90;7.32;;;15.60;99.90;;;;;;5035079;28;20082;-62
2022/08/19 00:41:23;;;;;;;12.30;7.88;;;15.60;99.90;;;;;;5052556;28;20456;-62
2022/08/19 00:44:02;;;;;;;11.65;7.82;;;15.60;99.90;;;;;;5052423;28;20045;-62
2022/08/19 00:46:28;;;;;;;11.27;8.65;;;15.60;99.90;;;;;;5051812;28;20491;-61
2022/08/19 00:48:56;;;;;;;10.35;7.75;;;15.70;99.90;;;;;;5052846;28;20052;-62
2022/08/19 00:51:24;;;;;;;11.60;7.57;;;15.70;99.90;;;;;;5035202;28;20053;-62
2022/08/19 00:53:50;;;;;;;10.82;7.82;;;16.00;99.90;;;;;;5051974;28;20063;-62
2022/08/19 00:56:16;;;;;;;10.50;7.20;;;15.50;99.90;;;;;;5052749;28;20478;-62
2022/08/19 00:58:43;;;;;;;14.02;8.52;;;15.50;99.90;;;;;;5052266;28;20112;-62
2022/08/19 01:01:09;;;;;;;15.25;7.72;;;15.40;99.90;;;;;;5051917;28;20041;-62
2022/08/19 01:03:34;;;;;;;11.45;8.60;;;15.30;99.90;;;;;;5052661;28;20379;-62
2022/08/19 01:06:00;;;;;;;10.93;7.50;;;15.30;99.90;;;;;;5052389;28;20512;-62
2022/08/19 01:08:26;;;;;;;12.43;8.25;;;15.40;99.90;;;;;;5051466;28;20043;-61
2022/08/19 01:10:59;;;;;;;12.27;7.50;;;15.40;99.90;;;;;;5034411;28;20041;-62
2022/08/19 01:13:28;;;;;;;12.07;8.32;;;15.30;99.90;;;;;;5052397;28;20052;-62
2022/08/19 01:16:00;;;;;;;12.65;7.55;;;;;;;;;;5051619;28;20112;-62
2022/08/19 01:18:27;;;;;;;10.75;7.40;;;14.90;99.90;;;;;;5034329;28;20581;-61
2022/08/19 01:21:05;;;;;;;15.05;8.45;;;15.00;99.90;;;;;;5052156;28;20043;-61
2022/08/19 01:23:43;;;;;;;13.80;8.05;;;14.60;99.90;;;;;;5033595;28;20040;-61
2022/08/19 01:26:18;;;;;;;13.40;8.45;;;15.30;99.90;;;;;;5052181;28;20048;-61
2022/08/19 01:28:44;;;;;;;11.93;7.57;;;;;;;;;;5051322;28;20037;-62
2022/08/19 01:31:16;;;;;;;10.20;7.18;;;;;;;;;;5052177;28;20041;-61
2022/08/19 01:33:42;;;;;;;11.70;7.70;;;;;;;;;;5052125;28;20052;-62
2022/08/19 01:36:10;;;;;;;10.48;7.80;;;;;;;;;;5033746;28;20099;-62
2022/08/19 01:38:38;;;;;;;11.80;9.02;;;;;;;;;;5052184;28;20036;-62
2022/08/19 01:41:04;;;;;;;14.68;8.02;;;;;;;;;;5051928;28;20044;-62
2022/08/19 01:43:30;;;;;;;12.00;8.13;;;;;;;;;;5033379;28;20052;-62
2022/08/19 01:45:56;;;;;;;12.35;8.57;;;;;;;;;;5034591;28;20055;-62
2022/08/19 01:48:23;;;;;;;11.02;7.90;;;;;;;;;;5033443;28;20083;-62
2022/08/19 01:50:49;;;;;;;13.05;8.60;;;;;;;;;;5050781;28;20570;-62
2022/08/19 01:53:15;;;;;;;10.32;7.22;;;;;;;;;;5017883;28;20048;-62
2022/08/19 01:55:43;;;;;;;10.65;7.80;;;;;;;;;;5033792;28;20076;-62
2022/08/19 01:58:21;;;;;;;10.23;7.65;;;;;;;;;;5033706;28;20544;-62
2022/08/19 02:00:48;;;;;;;11.27;7.65;;;;;;;;;;5033959;28;20128;-62
2022/08/19 02:03:15;;;;;;;12.55;8.38;;;;;;;;;;5051943;28;20116;-62
2022/08/19 02:05:43;;;;;;;12.00;7.78;;;;;;;;;;5033326;28;20088;-62
2022/08/19 02:08:09;;;;;;;10.63;7.05;;;;;;;;;;5051620;28;20087;-62
2022/08/19 02:10:38;;;;;;;10.68;7.43;;;;;;;;;;5051677;28;20039;-62
2022/08/19 02:13:04;;;;;;;11.43;7.40;;;;;;;;;;5050822;28;20053;-62
2022/08/19 02:15:31;;;;;;;15.27;7.90;;;;;;;;;;5051569;28;20498;-62
2022/08/19 02:17:58;;;;;;;12.25;8.25;;;;;;;;;;5033294;28;20053;-61
2022/08/19 02:20:24;;;;;;;12.18;8.30;;;;;;;;;;5051693;28;20179;-61
2022/08/19 02:22:50;;;;;;;14.50;8.20;;;;;;;;;;5051643;28;20045;-61
2022/08/19 02:25:16;;;;;;;12.30;8.25;;;;;;;;;;5050684;28;20060;-62
2022/08/19 02:27:43;;;;;;;12.27;7.90;;;;;;;;;;5033559;28;20128;-61
2022/08/19 02:30:10;;;;;;;9.52;6.72;;;;;;;;;;5033722;28;20045;-62
2022/08/19 02:32:36;;;;;;;10.32;7.93;;;;;;;;;;5032827;28;20056;-62
2022/08/19 02:35:03;;;;;;;11.75;8.55;;;;;;;;;;5033656;28;20079;-62
2022/08/19 02:40:14;;;;;;;12.65;9.50;;;;;;;;;;5050984;28;20041;-62
2022/08/19 02:42:41;;;;;;;13.27;7.60;;;;;;;;;;5051460;28;20401;-62
2022/08/19 02:45:07;;;;;;;12.27;8.38;;;;;;;;;;5033399;28;20076;-62
2022/08/19 02:47:34;;;;;;;13.60;7.88;;;;;;;;;;5032672;28;20041;-62
2022/08/19 02:50:01;;;;;;;10.88;7.60;;;;;;;;;;5033811;28;20052;-62
2022/08/19 02:52:28;;;;;;;14.07;8.05;;;;;;;;;;5051220;28;20040;-62
2022/08/19 02:54:57;;;;;;;10.63;7.50;;;;;;;;;;5050433;28;20045;-62
2022/08/19 02:57:23;;;;;;;13.50;8.90;;;;;;;;;;5051223;28;20112;-62
2022/08/19 02:59:49;;;;;;;12.50;7.72;;;;;;;;;;5054706;28;20071;-62
2022/08/19 03:02:15;;;;;;;12.00;8.80;;;;;;;;;;5036520;28;20553;-62
2022/08/19 03:04:41;;;;;;;11.50;8.55;;;;;;;;;;5037025;28;20041;-61
2022/08/19 03:07:08;;;;;;;11.52;8.20;;;;;;;;;;5019632;28;20057;-62
2022/08/19 03:09:36;;;;;;;11.50;8.27;;;;;;;;;;5036571;28;20052;-62
2022/08/19 03:12:03;;;;;;;13.27;7.72;;;;;;;;;;5054933;28;20041;-62
2022/08/19 03:14:31;;;;;;;12.02;8.38;;;;;;;;;;5036226;28;20032;-62
2022/08/19 03:16:57;;;;;;;14.32;8.38;;;;;;;;;;5054660;28;20037;-62
2022/08/19 03:19:23;;;;;;;11.48;7.70;;;;;;;;;;5036914;28;20048;-61
2022/08/19 03:21:50;;;;;;;11.10;8.00;;;;;;;;;;5053607;28;20405;-61
2022/08/19 03:24:17;;;;;;;14.75;8.23;;;;;;;;;;5036484;28;20135;-61
2022/08/19 03:26:45;;;;;;;11.18;7.80;;;;;;;;;;5036250;28;20053;-62
2022/08/19 03:29:11;;;;;;;12.55;8.93;;;;;;;;;;5035978;28;20128;-62
2022/08/19 03:31:38;;;;;;;11.40;8.25;;;;;;;;;;5054054;28;20489;-61
2022/08/19 03:34:04;;;;;;;12.40;8.57;;;;;;;;;;5036565;28;20440;-62
2022/08/19 03:36:30;;;;;;;14.13;9.13;;;;;;;;;;5035407;28;20497;-61
2022/08/19 03:38:59;;;;;;;12.50;8.75;;;;;;;;;;5053818;28;20037;-61
2022/08/19 03:41:27;;;;;;;11.02;7.65;;;;;;;;;;5036232;28;20048;-62
2022/08/19 03:43:54;;;;;;;12.93;8.63;;;;;;;;;;5035363;28;20041;-62
2022/08/19 03:46:21;;;;;;;11.55;8.52;;;;;;;;;;5036390;28;20398;-61
2022/08/19 03:48:49;;;;;;;14.20;9.40;;;;;;;;;;5036304;28;20045;-62
2022/08/19 03:51:19;;;;;;;14.15;7.85;;;;;;;;;;5038149;28;20102;-62
2022/08/19 03:53:46;;;;;;;10.15;7.57;;;;;;;;;;5073378;28;20071;-62
2022/08/19 03:56:12;;;;;;;12.02;8.68;;;;;;;;;;5059414;28;20386;-62
2022/08/19 03:58:39;;;;;;;11.02;7.55;;;;;;;;;;5022980;28;20188;-61
2022/08/19 04:01:13;;;;;;;11.70;8.55;;;;;;;;;;5046120;28;20045;-61
2022/08/19 04:03:40;;;;;;;12.73;8.88;;;;;;;;;;5038692;28;20386;-62
2022/08/19 04:06:10;;;;;;;11.48;8.00;;;;;;;;;;5055386;28;20048;-62
2022/08/19 04:08:36;;;;;;;11.18;7.78;;;;;;;;;;5063845;28;20033;-62
2022/08/19 04:11:07;;;;;;;12.18;8.15;;;;;;;;;;5034010;28;20433;-62
2022/08/19 04:13:34;;;;;;;11.15;7.97;;;;;;;;;;5035747;28;20045;-62
2022/08/19 04:16:00;;;;;;;11.43;8.02;;;;;;;;;;5035799;28;20092;-62
2022/08/19 04:18:26;;;;;;;11.45;6.95;;;;;;;;;;5052548;28;20041;-62
2022/08/19 04:20:52;;;;;;;10.88;7.78;;;;;;;;;;5018829;28;20126;-62
2022/08/19 04:23:18;;;;;;;12.57;8.63;;;;;;;;;;5035685;28;20095;-62
2022/08/19 04:25:44;;;;;;;10.25;7.15;;;;;;;;;;5052114;28;20064;-62
2022/08/19 04:28:13;;;;;;;13.23;7.80;;;;;;;;;;5053589;28;20120;-62
2022/08/19 04:30:43;;;;;;;12.63;7.63;;;;;;;;;;5053194;28;20037;-62
2022/08/19 04:33:10;;;;;;;12.52;8.40;;;;;;;;;;5034650;28;20094;-62
2022/08/19 04:35:37;;;;;;;11.30;7.32;;;;;;;;;;5053088;28;20440;-62
2022/08/19 04:38:04;;;;;;;9.73;6.70;;;;;;;;;;5034905;28;20044;-62
2022/08/19 04:43:15;;;;;;;13.55;8.50;;;;;;;;;;5053051;28;20098;-62
2022/08/19 04:45:41;;;;;;;10.88;7.85;;;;;;;;;;5051885;28;20047;-62
2022/08/19 04:48:07;;;;;;;12.18;7.75;;;;;;;;;;5034987;28;20087;-62
2022/08/19 04:50:33;;;;;;;11.15;7.25;;;;;;;;;;5034973;28;20045;-62
2022/08/19 04:52:59;;;;;;;12.35;8.35;;;;;;;;;;5034069;28;20080;-62
2022/08/19 04:55:25;;;;;;;10.80;6.95;;;;;;;;;;5035148;28;20103;-61
2022/08/19 04:57:51;;;;;;;10.88;7.50;;;;;;;;;;5031170;28;20073;-61
2022/08/19 05:00:17;;;;;;;13.25;9.20;;;;;;;;;;5014689;28;20080;-61
2022/08/19 05:02:43;;;;;;;13.02;8.98;;;;;;;;;;5026961;28;20047;-61
2022/08/19 05:05:09;;;;;;;11.95;8.98;;;;;;;;;;5052936;28;20040;-61
2022/08/19 05:07:36;;;;;;;14.38;8.20;;;;;;;;;;5033865;28;20124;-61
2022/08/19 05:10:04;;;;;;;11.73;8.32;;;;;;;;;;5034414;28;20052;-61
2022/08/19 05:12:30;;;;;;;11.43;7.93;;;;;;;;;;5052222;28;20069;-61
2022/08/19 05:14:57;;;;;;;10.82;7.80;;;;;;;;;;5017270;28;20036;-61
2022/08/19 05:17:23;;;;;;;9.88;7.30;;;;;;;;;;5052288;28;20441;-61
2022/08/19 05:22:37;;;;;;;13.50;9.23;;;;;;;;;;5033530;28;20139;-61
2022/08/19 05:25:05;;;;;;;11.43;8.80;;;;;;;;;;5030672;28;20080;-62
2022/08/19 05:27:32;;;;;;;12.15;8.05;;;;;;;;;;5014381;28;20045;-62
2022/08/19 05:29:58;;;;;;;10.80;6.82;;;;;;;;;;5031551;28;20049;-62
2022/08/19 05:32:24;;;;;;;11.88;8.32;;;;;;;;;;5030866;28;20041;-62
2022/08/19 05:34:50;;;;;;;10.95;7.90;;;;;;;;;;5031349;28;20087;-61
2022/08/19 05:37:16;;;;;;;12.80;7.78;;;;;;;;;;5030735;28;20041;-62
2022/08/19 05:39:43;;;;;;;11.15;7.75;;;;;;;;;;5032048;28;20045;-62
2022/08/19 05:42:10;;;;;;;11.98;8.30;;;;;;;;;;5013871;28;20066;-61
2022/08/19 05:44:48;;;;;;;13.73;9.20;;;;;;;;;;5031911;28;20038;-62
2022/08/19 05:47:15;;;;;;;15.32;9.75;;;;;;;;;;5031219;28;20053;-61
2022/08/19 05:49:41;;;;;;;15.27;9.48;;;;;;;;;;5031116;28;20042;-61
2022/08/19 05:52:10;;;;;;;13.63;9.00;;;;;;;;;;5031843;28;20159;-62
2022/08/19 05:54:37;;;;;;;15.50;9.05;;;;;;;;;;5031831;28;20048;-62
2022/08/19 05:57:04;;;;;;;12.48;9.63;;;;;;;;;;5031351;28;20048;-62
2022/08/19 05:59:30;;;;;;;12.93;9.95;;;;;;;;;;5030404;28;20041;-62
2022/08/19 06:01:56;;;;;;;14.75;10.02;;;;;;;;;;5031779;28;20048;-62
2022/08/19 06:04:23;;;;;;;15.38;10.93;;;;;;;;;;5029863;28;20124;-62
2022/08/19 06:06:51;;;;;;;16.08;10.10;;;;;;;;;;5031513;28;20071;-62
2022/08/19 06:09:17;;;;;;;14.85;11.13;;;;;;;;;;5032194;28;20048;-62
2022/08/19 06:11:48;;;;;;;17.52;11.63;;;;;;;;;;5029609;28;20045;-61
2022/08/19 06:14:16;;;;;;;19.05;12.43;;;;;;;;;;5010649;28;20046;-62
2022/08/19 06:16:42;;;;;;;17.33;11.00;;;;;;;;;;5011830;28;20049;-62
2022/08/19 06:19:10;;;;;;;15.98;10.50;;;;;;;;;;5011349;28;20042;-62
2022/08/19 06:21:37;;;;;;;18.02;11.98;;;;;;;;;;5011822;28;20048;-62
2022/08/19 06:24:04;;;;;;;19.27;12.02;;;;;;;;;;5012082;28;20053;-62
2022/08/19 06:26:30;;;;;;;16.27;11.07;;;;;;;;;;5014218;28;20076;-62
2022/08/19 06:28:56;;;;;;;15.68;12.15;;;;;;;;;;5020780;28;20056;-62
2022/08/19 06:31:25;;;;;;;16.10;10.85;;;;;;;;;;5050629;28;20056;-61
2022/08/19 06:33:51;;;;;;;15.73;10.88;;;;;;;;;;5053400;28;20048;-62
2022/08/19 06:36:19;;;;;;;16.58;12.70;;;;;;;;;;5037607;28;20535;-62
2022/08/19 06:38:45;;;;;;;16.58;11.70;;;;;;;;;;5020013;28;20103;-62
2022/08/19 06:41:11;;;;;;;14.93;10.75;;;18.00;99.90;;;;;;5037613;28;20072;-62
2022/08/19 06:43:37;;;;;;;15.38;11.35;;;18.20;99.90;;;;;;5037311;28;20077;-62
2022/08/19 06:46:03;;;;;;;16.63;11.60;;;18.20;99.90;;;;;;5054164;28;20049;-61
2022/08/19 06:48:29;;;;;;;14.98;11.80;;;18.30;99.90;;;;;;5037253;28;20114;-61
2022/08/19 06:50:55;;;;;;;18.08;11.38;;;18.30;99.90;;;;;;5054764;28;20128;-62
2022/08/19 06:53:21;;;;;;;16.80;12.40;;;;;;;;;;5036984;28;20111;-62
2022/08/19 06:55:47;;;;;;;16.15;11.35;;;;;;;;;;5055034;28;20044;-62
2022/08/19 06:58:14;;;;;;;13.85;10.48;;;;;;;;;;5037508;28;20041;-62
2022/08/19 07:00:40;;;;;;;14.65;10.45;;;;;;;;;;5035914;28;20041;-62
2022/08/19 07:03:07;;;;;;;15.73;10.93;;;;;;;;;;5054693;28;20086;-62
2022/08/19 07:05:33;;;;;;;15.95;11.27;;;;;;;;;;5054971;28;20080;-62
2022/08/19 07:07:59;;;;;;;13.75;10.57;;;;;;;;;;5053948;28;20094;-62
2022/08/19 07:10:25;;;;;;;14.93;11.02;;;18.40;99.90;;;;;;5054723;28;20041;-61
2022/08/19 07:12:51;;;;;;;14.75;11.73;;;19.10;99.90;;;;;;5054529;28;20084;-61
2022/08/19 07:15:17;;;;;;;14.93;11.38;;;19.30;99.90;;;;;;5032502;28;20116;-62
2022/08/19 07:17:45;;;;;;;14.25;11.73;;;;;;;;;;5034391;28;20164;-62
2022/08/19 07:20:11;;;;;;;14.98;10.15;;;;;;;;;;5049057;28;20055;-62
2022/08/19 07:22:38;;;;;;;15.32;11.32;;;19.60;99.90;;;;;;5054635;28;20124;-61
2022/08/19 07:25:05;;;;;;;15.55;11.30;;;19.60;99.90;;;;;;5036088;28;20049;-62
2022/08/19 07:27:31;;;;;;;13.65;11.05;;;19.70;99.90;;;;;;5035719;28;20053;-62
2022/08/19 07:29:57;;;;;;;18.27;11.55;;;;;;;;;;5036220;28;20044;-62
2022/08/19 07:32:25;;;;;;;14.10;10.40;;;;;;;;;;5053926;28;20041;-61
2022/08/19 07:34:52;;;;;;;15.15;11.40;;;;;;;;;;5053335;28;20482;-62
2022/08/19 07:37:18;;;;;;;15.27;11.55;;;;;;;;;;5036799;28;20124;-62
2022/08/19 07:39:44;;;;;;;14.90;10.38;;;;;;;;;;5036146;28;20044;-62
2022/08/19 07:42:11;;;;;;;17.55;11.82;;;;;;;;;;5052276;28;20045;-62
2022/08/19 07:44:38;;;;;;;16.35;11.82;;;;;;;;;;5051878;28;20397;-62
2022/08/19 07:47:04;;;;;;;15.75;13.50;;;;;;;;;;5036196;28;20431;-62
2022/08/19 07:49:31;;;;;;;15.95;12.32;;;;;;;;;;5017931;28;20045;-61
2022/08/19 07:52:02;;;;;;;17.35;12.68;;;;;;;;;;5035002;28;20048;-61
2022/08/19 07:54:30;;;;;;;19.05;13.52;;;;;;;;;;5053702;28;20043;-61
2022/08/19 07:56:56;;;;;;;16.25;12.43;;;;;;;;;;5014982;28;20045;-62
2022/08/19 07:59:23;;;;;;;17.92;12.55;;;20.90;99.90;;;;;;5009036;28;20041;-61
2022/08/19 08:01:49;;;;;;;16.50;12.57;;;20.80;99.90;;;;;;5036052;28;20045;-80
2022/08/19 08:09:44;;;;;;;16.83;13.25;;;20.90;99.90;;;;;;5012231;28;20330;-81
2022/08/19 08:12:22;;;;;;;17.80;14.77;;;21.10;99.90;;;;;;5015522;28;20110;-82
2022/08/19 08:14:53;;;;;;;17.48;14.45;;;21.30;99.90;;;;;;5051146;28;20044;-81
2022/08/19 08:17:24;;;;;;;16.50;13.25;;;21.30;99.90;;;;;;5050122;28;20041;-80
2022/08/19 08:19:50;;;;;;;18.67;13.82;;;;;;;;;;5033218;28;20639;-80
2022/08/19 08:25:12;;;;;;;19.00;14.73;;;;;;;;;;5032702;28;20097;-79
2022/08/19 08:27:39;;;;;;;18.63;15.60;;;21.60;99.90;;;;;;5030837;28;20397;-82
2022/08/19 08:30:09;;;;;;;20.13;16.30;;;;;;;;;;5047815;28;20052;-62
2022/08/19 08:32:36;;;;;;;21.90;15.73;;;21.80;99.90;;;;;;5046824;28;20679;-62
2022/08/19 08:35:04;;;;;;;18.77;15.77;;;21.60;99.90;;;;;;5030945;28;20059;-62
2022/08/19 08:37:30;;;;;;;18.80;16.42;;;;;;;;;;5015489;28;20056;-61
2022/08/19 08:39:56;;;;;;;24.30;18.00;;;;;;;;;;5049566;28;20053;-61
2022/08/19 08:42:30;;;;;;;20.75;17.65;;;21.90;99.90;;;;;;5049078;28;20048;-62
2022/08/19 08:45:01;;;;;;;;;;;22.10;99.90;;;;;;5049888;28;20102;-62
2022/08/19 08:47:36;;;;;;;20.27;15.68;;;22.10;99.90;;;;;;5030916;28;20312;-62
2022/08/19 08:50:12;;;;;;;18.88;15.98;;;22.00;99.90;;;;;;5031977;28;20056;-63
2022/08/19 08:52:45;;;;;;;19.88;15.80;;;22.00;99.90;;;;;;5023931;28;20055;-61
2022/08/19 08:55:19;;;;;;;18.33;15.32;;;22.10;99.90;;;;;;5032312;28;20047;-61
2022/08/19 08:57:51;;;;;;;22.10;17.02;;;22.00;99.90;;;;;;5031223;28;20044;-63
2022/08/19 09:00:25;;;;;;;21.70;16.95;;;22.20;99.90;;;;;;5049265;28;20123;-62
2022/08/19 09:02:51;;;;;;;23.05;17.08;;;;;;;;;;5031954;28;20072;-62
2022/08/19 09:05:20;;;;;;;19.40;16.27;;;22.30;99.90;;;;;;5031461;28;20106;-62
2022/08/19 09:07:59;;;;;;;21.60;17.52;;;22.30;99.90;;;;;;5031174;28;20144;-62
2022/08/19 09:10:36;;;;;;;22.73;17.33;;;22.50;99.90;;;;;;5031894;28;20057;-62
2022/08/19 09:13:08;;;;;;;19.48;16.83;;;22.50;99.90;;;;;;5014845;28;20049;-62
2022/08/19 09:15:48;;;;;;;18.75;15.30;;;22.70;99.90;;;;;;5031315;28;20144;-62
2022/08/19 09:18:16;;;;;;;19.92;16.88;;;22.50;99.90;;;;;;5049561;28;20041;-63
2022/08/19 09:20:42;;;;;;;20.85;18.65;;;;;;;;;;5049002;28;20041;-63
2022/08/19 09:23:10;;;;;;;27.20;18.35;;;;;;;;;;5031549;28;20049;-62
2022/08/19 09:25:36;;;;;;;21.88;17.83;;;;;;;;;;5031096;28;20119;-62
2022/08/19 09:28:03;;;;;;;22.08;18.08;;;;;;;;;;5030777;28;20059;-62
2022/08/19 09:30:33;;;;;;;21.63;17.40;;;23.30;99.90;;;;;;5039498;28;20049;-63
2022/08/19 09:33:02;;;;;;;23.50;18.25;;;;;;;;;;5028610;28;20048;-62
2022/08/19 09:35:29;;;;;;;23.52;18.40;;;23.40;99.90;;;;;;5028767;28;20056;-62
2022/08/19 09:37:57;;;;;;;24.65;19.85;;;;;;;;;;5048129;28;20041;-62
2022/08/19 09:40:24;;;;;;;22.73;19.73;;;;;;;;;;5030461;28;20036;-62
2022/08/19 09:42:51;;;;;;;24.42;18.98;;;;;;;;;;5029026;28;20053;-62
2022/08/19 09:45:22;;;;;;;22.63;19.00;;;23.90;99.90;;;;;;5031248;28;20118;-62
2022/08/19 09:47:53;;;;;;;22.35;17.52;;;23.90;99.90;;;;;;5048567;28;20080;-62
2022/08/19 09:50:19;;;;;;;20.38;16.35;;;;;;;;;;5030249;28;20045;-62
2022/08/19 09:52:46;;;;;;;19.00;16.42;;;23.90;99.90;;;;;;5048638;28;20046;-62
2022/08/19 09:55:20;;;;;;;21.83;18.25;;;;;;;;;;5020056;28;20457;-62
2022/08/19 09:57:55;;;;;;;;;;;23.80;99.90;;;;;;5011349;28;20029;-63
2022/08/19 10:00:21;;;;;;;25.93;18.77;;;;;;;;;;5029296;28;19927;-62
2022/08/19 10:02:47;;;;;;;25.42;19.67;;;;;;;;;;5029111;28;20047;-62
2022/08/19 10:08:01;;;;;;;;;;;;;;;;;;5049521;28;20044;-62
2022/08/19 10:10:27;;;;;;;24.08;19.13;;;;;;;;;;5033729;28;19920;-62
2022/08/19 10:12:54;;;;;;;23.00;18.20;;;;;;;;;;5034558;28;20049;-62
2022/08/19 10:15:20;;;;;;;22.08;18.17;;;;;;;;;;5052539;28;20103;-62
2022/08/19 10:17:47;;;;;;;18.10;15.05;;;;;;;;;;5033441;28;20068;-62
2022/08/19 10:20:13;;;;;;;18.90;15.35;;;;;;;;;;5034368;28;20049;-62
2022/08/19 10:22:39;;;;;;;19.33;15.07;;;;;;;;;;5035298;28;20115;-62
2022/08/19 10:25:06;;;;;;;18.15;13.57;;;24.50;99.90;;;;;;5054340;28;20073;-62
2022/08/19 10:27:32;;;;;;;19.35;15.70;;;;;;;;;;5037238;28;20413;-62
2022/08/19 10:29:58;;;;;;;20.10;15.35;;;;;;;;;;5053068;28;20465;-63
2022/08/19 10:32:25;;;;;;;15.38;12.00;;;;;;;;;;5035852;28;20489;-62
2022/08/19 10:34:52;;;;;;;16.67;12.73;;;;;;;;;;5017488;28;20076;-63
2022/08/19 10:37:18;;;;;;;15.25;12.35;;;;;;;;;;5017303;28;20068;-63
2022/08/19 10:39:47;;;;;;;20.08;13.82;;;25.00;99.90;;;;;;5015217;28;20058;-62
2022/08/19 10:42:13;;;;;;;16.23;13.23;;;;;;;;;;5055297;28;20076;-61
2022/08/19 10:44:39;;;;;;;18.95;13.48;;;;;;;;;;5046958;28;20112;-63
2022/08/19 10:47:06;;;;;;;16.73;12.05;;;;;;;;;;5035166;28;20041;-75
2022/08/19 10:52:32;;;;;;;15.85;12.90;;;;;;;;;;5037253;28;20044;-75
2022/08/19 10:52:33;;;;;;;16.98;12.40;;;;;;;;;;5036582;28;20367;-74
2022/08/19 10:57:44;;;;;;;19.25;14.55;;;;;;;;;;5036839;28;20052;-75
2022/08/19 11:00:12;;;;;;;18.35;12.23;;;24.50;99.90;;;;;;5054399;28;20120;-75
2022/08/19 11:02:39;;;;;;;17.25;12.23;;;;;;;;;;5054775;28;20044;-75
2022/08/19 11:05:06;;;;;;;17.95;13.27;;;24.90;99.90;;;;;;5036920;28;20563;-75
2022/08/19 11:07:32;;;;;;;16.33;11.95;;;;;;;;;;5035980;28;20083;-75
2022/08/19 11:09:59;;;;;;;13.93;11.55;;;;;;;;;;5036979;28;20045;-75
2022/08/19 11:12:25;;;;;;;13.52;9.77;;;;;;;;;;5036115;28;20063;-75
2022/08/19 11:14:52;;;;;;;15.70;10.88;;;;;;;;;;5054721;28;20041;-74
2022/08/19 11:17:19;;;;;;;14.18;11.48;;;;;;;;;;5036916;28;20041;-74
2022/08/19 11:19:46;;;;;;;16.77;11.13;;;;;;;;;;5035302;28;20052;-75
2022/08/19 11:22:12;;;;;;;17.10;10.90;;;;;;;;;;5054852;28;20045;-74
2022/08/19 11:24:38;;;;;;;19.77;11.05;;;;;;;;;;5054420;28;20071;-75
2022/08/19 11:27:08;;;;;;;20.02;12.57;;;25.30;99.90;;;;;;5053589;28;20055;-75
2022/08/19 11:29:38;;;;;;;14.77;11.93;;;25.20;99.90;;;;;;5036585;28;20040;-75
2022/08/19 11:32:09;;;;;;;16.58;12.90;;;25.30;99.90;;;;;;5054126;28;20371;-74
2022/08/19 11:34:35;;;;;;;15.73;11.60;;;25.30;99.90;;;;;;5035781;28;20049;-74
2022/08/19 11:37:03;;;;;;;16.45;11.35;;;25.20;99.90;;;;;;5054194;28;20037;-75
2022/08/19 11:39:31;;;;;;;18.33;14.55;;;25.00;99.90;;;;;;5036391;28;20044;-75
2022/08/19 11:42:02;;;;;;;17.70;13.07;;;25.20;99.90;;;;;;5035553;28;20080;-75
2022/08/19 11:44:30;;;;;;;16.90;12.35;;;24.50;99.90;;;;;;5036393;28;20175;-75
2022/08/19 11:46:56;;;;;;;22.83;14.23;;;;;;;;;;5054251;28;20094;-75
2022/08/19 11:49:22;;;;;;;17.67;13.35;;;;;;;;;;5053267;28;20099;-74
2022/08/19 11:51:50;;;;;;;15.95;11.77;;;;;;;;;;5036093;28;20049;-74
2022/08/19 11:54:17;;;;;;;13.82;9.88;;;24.10;99.90;;;;;;5054132;28;20044;-74
2022/08/19 11:56:43;;;;;;;16.73;11.20;;;;;;;;;;5035122;28;20029;-74
2022/08/19 11:59:10;;;;;;;14.45;9.98;;;;;;;;;;5019543;28;20044;-74
2022/08/19 12:01:36;;;;;;;14.50;10.05;;;23.70;99.90;;;;;;5018557;28;20132;-74
2022/08/19 12:04:04;;;;;;;14.88;8.95;;;;;;;;;;5053809;28;20044;-74
2022/08/19 12:06:33;;;;;;;14.30;9.45;;;23.70;99.90;;;;;;5053694;28;20091;-74
2022/08/19 12:09:04;;;;;;;12.38;8.88;;;23.80;99.90;;;;;;5052833;28;20410;-74
2022/08/19 12:11:30;;;;;;;14.45;9.68;;;;;;;;;;5035648;28;20123;-74
2022/08/19 12:13:56;;;;;;;12.43;8.95;;;;;;;;;;5053669;28;20040;-74
2022/08/19 12:16:27;;;;;;;12.90;8.23;;;24.00;99.90;;;;;;5035164;28;20368;-74
2022/08/19 12:18:54;;;;;;;12.13;8.27;;;24.10;99.90;;;;;;5035695;28;20045;-74
2022/08/19 12:21:24;;;;;;;11.45;8.48;;;24.20;99.90;;;;;;5035859;28;20098;-74
2022/08/19 12:23:51;;;;;;;11.68;8.13;;;;;;;;;;5052438;28;20044;-74
2022/08/19 12:26:17;;;;;;;11.65;7.82;;;24.10;99.90;;;;;;5035592;28;20432;-74
2022/08/19 12:28:44;;;;;;;11.48;7.38;;;24.20;99.90;;;;;;5053218;28;20405;-74
2022/08/19 12:31:13;;;;;;;10.43;6.25;;;24.20;99.90;;;;;;5034588;28;20170;-74
2022/08/19 12:33:40;;;;;;;11.30;6.38;;;24.30;99.90;;;;;;5034218;28;20040;-66
2022/08/19 12:36:09;;;;;;;11.07;6.10;;;23.70;99.90;;;;;;5051937;28;20044;-64
2022/08/19 12:38:36;;;;;;;8.85;6.82;;;23.80;99.90;;;;;;5016253;28;20516;-65
2022/08/19 12:41:05;;;;;;;11.60;5.95;;;;;;;;;;5049700;28;20041;-67
2022/08/19 12:43:31;;;;;;;11.00;6.78;;;;;;;;;;5073376;28;20090;-67
2022/08/19 12:45:57;;;;;;;11.23;6.85;;;;;;;;;;5047323;28;20041;-66
2022/08/19 12:48:23;;;;;;;13.27;5.95;;;;;;;;;;5018725;28;20044;-66
2022/08/19 12:50:49;;;;;;;14.65;6.70;;;;;;;;;;5052534;28;20044;-65
2022/08/19 12:53:16;;;;;;;13.63;6.07;;;24.40;99.90;;;;;;5052295;28;20135;-63
2022/08/19 12:55:45;;;;;;;11.90;6.45;;;;;;;;;;5043288;28;20623;-66
2022/08/19 12:58:12;;;;;;;9.90;4.65;;;24.30;99.90;;;;;;5039432;28;20072;-66
2022/08/19 13:00:39;;;;;;;7.80;4.70;;;24.30;99.90;;;;;;5048598;28;20041;-65
2022/08/19 13:03:06;;;;;;;11.98;5.65;;;;;;;;;;5054687;28;20044;-66
2022/08/19 13:05:33;;;;;;;12.43;5.80;;;24.20;99.90;;;;;;5051813;28;20068;-66
2022/08/19 13:08:00;;;;;;;9.88;5.53;;;;;;;;;;5034123;28;20081;-65
2022/08/19 13:10:29;;;;;;;7.00;4.32;;;24.10;99.90;;;;;;5052369;28;20040;-64
2022/08/19 13:12:55;;;;;;;13.68;9.07;;;;;;;;;;5033325;28;20044;-67
2022/08/19 13:15:22;;;;;;;22.67;17.45;;;;;;;;;;5052768;28;20033;-68
2022/08/19 13:17:49;;;;;;;21.48;16.40;;;24.10;99.90;;;;;;5014768;28;20098;-69
2022/08/19 13:20:18;;;;;;;22.55;15.68;;;23.70;99.90;;;;;;5021338;28;20045;-66
2022/08/19 13:22:47;;;;;;;23.67;17.52;;;23.90;99.90;;;;;;5026016;28;20041;-70
2022/08/19 13:25:32;;;;;;;23.42;17.42;;;23.90;99.90;;;;;;5026952;28;20045;-70
2022/08/19 13:27:59;;;;;;;21.73;17.20;;;24.50;99.90;;;;;;5027021;28;20118;-68
2022/08/19 13:33:14;;;;;;;25.50;18.98;;;;;;;;;;5048957;28;20076;-68
2022/08/19 13:35:46;;;;;;;22.58;17.95;;;23.70;99.90;;;;;;5017500;28;20044;-65
2022/08/19 13:38:13;;;;;;;21.95;16.75;;;;;;;;;;5014721;28;20037;-65
2022/08/19 13:40:40;;;;;;;18.92;15.68;;;24.00;99.90;;;;;;4997109;28;20068;-66
2022/08/19 13:43:06;;;;;;;21.85;17.25;;;;;;;;;;5015032;28;20086;-66
2022/08/19 13:45:33;;;;;;;21.05;16.27;;;24.10;99.90;;;;;;5014770;28;20383;-65
2022/08/19 13:48:04;;;;;;;20.25;15.88;;;24.10;99.90;;;;;;5022469;28;20052;-62
2022/08/19 13:50:31;;;;;;;20.58;16.15;;;24.10;99.90;;;;;;5032172;28;20045;-62
2022/08/19 13:52:57;;;;;;;21.92;16.27;;;;;;;;;;5032153;28;20034;-63
2022/08/19 13:55:24;;;;;;;21.85;18.00;;;;;;;;;;5031300;28;20475;-62
2022/08/19 13:57:54;;;;;;;21.08;16.52;;;23.80;99.90;;;;;;5017371;28;20121;-62
2022/08/19 14:00:23;;;;;;;21.45;16.83;;;;;;;;;;5028876;28;20112;-62
2022/08/19 14:02:51;;;;;;;24.50;16.63;;;;;;;;;;5015232;28;20046;-62
2022/08/19 14:05:18;;;;;;;21.42;16.50;;;23.90;99.90;;;;;;5025703;28;20539;-62
2022/08/19 14:07:44;;;;;;;29.30;17.02;;;;;;;;;;5047161;28;20060;-62
2022/08/19 14:10:12;;;;;;;26.52;19.02;;;23.90;99.90;;;;;;5011082;28;20469;-62